Cedar Grove, North Carolina
Current Conditions -  °F | °C
As of 8:55 PM on Wednesday 26 Nov 2014 (Local Time) from KSIF Reporting Station
Moderate Fog Moderate Fog  
Wind Chill: 35°   Ceiling: 100
Heat Index: 35°   Visibility: 0.5mi
Dew Point: 34°   Wind: 0mph
Humidity: 99%   Direction: NA
Pressure: 30.04"   Gusts: NA
Location:  36.5°N, 79.73°W
Report Text: KSIF 270155Z AUTO 00000KT 1/2SM FG BKN001 BKN047 01/01 A3004 RMK AO2 P0001 T00140013
Loading
Personal Weather Stations






























Interactive Weather Map New forecast layout! Learn more

10-Day Weather Forecast

Advertisements
Track Severe Weather on mobile